Time;durP1;ratioP1;P1;durP2;ratioP2;P2;SDS_P1;SDS_P2;PMS_P1;PMS_P2;Temp;Humidity;BMP_temperature;BMP_pressure;BME280_temperature;BME280_humidity;BME280_pressure;Samples;Min_cycle;Max_cycle;Signal;HPM_P1;HPM_P2
2023/10/23 00:02:16;;;;;;;6.90;5.70;;;;;;;-128.00;-1.00;-1.00;2;363126209;363126209;-30
2023/10/23 00:13:34;;;;;;;6.90;5.70;;;;;;;-128.00;-1.00;-1.00;4;7505015;579198330;-31
2023/10/23 00:22:45;;;;;;;6.90;5.70;;;;;;;-128.00;-1.00;-1.00;2;543182027;543182027;-30
2023/10/23 00:32:41;;;;;;;6.90;5.70;;;;;;;-128.00;-1.00;-1.00;2;588200445;588200445;-36
2023/10/23 00:40:13;;;;;;;6.90;5.70;;;;;;;-128.00;-1.00;-1.00;2;444152866;444152866;-34
2023/10/23 00:46:24;;;;;;;6.90;5.70;;;;;;;-128.00;-1.00;-1.00;2;363124542;363124542;-30
2023/10/23 00:57:43;;;;;;;6.90;5.70;;;;;;;-128.00;-1.00;-1.00;4;7505383;579190739;-30
2023/10/23 01:06:53;;;;;;;6.90;5.70;;;;;;;-128.00;-1.00;-1.00;2;543188981;543188981;-32
2023/10/23 01:16:49;;;;;;;6.90;5.70;;;;;;;-128.00;-1.00;-1.00;2;588200646;588200646;-32
2023/10/23 01:24:21;;;;;;;6.90;5.70;;;;;;;-128.00;-1.00;-1.00;2;444148411;444148411;-32
2023/10/23 01:30:32;;;;;;;6.90;5.70;;;;;;;-128.00;-1.00;-1.00;2;363121883;363121883;-30
2023/10/23 01:41:51;;;;;;;6.90;5.70;;;;;;;-128.00;-1.00;-1.00;4;7504549;579196299;-30
2023/10/23 01:51:02;;;;;;;6.90;5.70;;;;;;;-128.00;-1.00;-1.00;2;543188022;543188022;-32
2023/10/23 02:48:48;;;;;;;15.00;6.30;;;;;;;-82.47;32.67;33080.44;2;584399741;584399741;-29
2023/10/23 02:57:59;;;;;;;15.00;6.30;;;;;;;-128.00;-1.00;-1.00;2;543184532;543184532;-31
2023/10/23 03:07:46;;;;;;;15.00;6.30;;;;;;;-128.00;-1.00;-1.00;2;579194148;579194148;-30
2023/10/23 03:15:18;;;;;;;15.00;6.30;;;;;;;-128.00;-1.00;-1.00;2;444153417;444153417;-30
2023/10/23 03:21:29;;;;;;;15.00;6.30;;;;;;;-128.00;-1.00;-1.00;2;363129913;363129913;-28
2023/10/23 03:32:48;;;;;;;15.00;6.30;;;;;;;-128.00;-1.00;-1.00;4;7510219;579207811;-31
2023/10/23 03:41:59;;;;;;;15.00;6.30;;;;;;;-128.00;-1.00;-1.00;2;543187975;543187975;-30
2023/10/23 03:51:46;;;;;;;15.00;6.30;;;;;;;-128.00;-1.00;-1.00;2;579192563;579192563;-29
2023/10/23 03:59:18;;;;;;;15.00;6.30;;;;;;;-128.00;-1.00;-1.00;2;444149993;444149993;-32
2023/10/23 04:05:30;;;;;;;15.00;6.30;;;;;;;-128.00;-1.00;-1.00;2;363125595;363125595;-32
2023/10/23 04:16:49;;;;;;;15.00;6.30;;;;;;;-128.00;-1.00;-1.00;4;7504522;579199831;-29
2023/10/23 04:26:00;;;;;;;15.00;6.30;;;;;;;-128.00;-1.00;-1.00;2;543181559;543181559;-29
2023/10/23 04:35:56;;;;;;;15.00;6.30;;;;;;;-128.00;-1.00;-1.00;2;588198685;588198685;-31
2023/10/23 04:43:28;;;;;;;15.00;6.30;;;;;;;-128.00;-1.00;-1.00;2;444149399;444149399;-34
2023/10/23 04:49:39;;;;;;;15.00;6.30;;;;;;;-128.00;-1.00;-1.00;2;363125396;363125396;-29
2023/10/23 05:00:58;;;;;;;15.00;6.30;;;;;;;-128.00;-1.00;-1.00;4;7505378;579200466;-31
2023/10/23 05:10:09;;;;;;;15.00;6.30;;;;;;;-128.00;-1.00;-1.00;2;543187720;543187720;-32
2023/10/23 05:20:06;;;;;;;15.00;6.30;;;;;;;-128.00;-1.00;-1.00;2;588202222;588202222;-30
2023/10/23 05:27:38;;;;;;;15.00;6.30;;;;;;;-128.00;-1.00;-1.00;2;444151755;444151755;-29
2023/10/23 05:33:49;;;;;;;15.00;6.30;;;;;;;-128.00;-1.00;-1.00;2;363126694;363126694;-32
2023/10/23 05:45:08;;;;;;;15.00;6.30;;;;;;;-128.00;-1.00;-1.00;4;7504927;579201714;-31
2023/10/23 05:54:19;;;;;;;15.00;6.30;;;;;;;-128.00;-1.00;-1.00;2;543186758;543186758;-29
2023/10/23 06:04:15;;;;;;;15.00;6.30;;;;;;;-128.00;-1.00;-1.00;2;588202620;588202620;-32
2023/10/23 06:11:47;;;;;;;15.00;6.30;;;;;;;-128.00;-1.00;-1.00;2;444152355;444152355;-29
2023/10/23 06:17:59;;;;;;;15.00;6.30;;;;;;;-128.00;-1.00;-1.00;2;363126789;363126789;-29
2023/10/23 06:29:18;;;;;;;15.00;6.30;;;;;;;-128.00;-1.00;-1.00;4;7505415;579196765;-31
2023/10/23 06:38:29;;;;;;;15.00;6.30;;;;;;;-128.00;-1.00;-1.00;2;543187463;543187463;-30
2023/10/23 06:48:25;;;;;;;15.00;6.30;;;;;;;-128.00;-1.00;-1.00;2;588201348;588201348;-37
2023/10/23 06:55:58;;;;;;;15.00;6.30;;;;;;;-128.00;-1.00;-1.00;2;444152059;444152059;-33
2023/10/23 07:02:09;;;;;;;15.00;6.30;;;;;;;-128.00;-1.00;-1.00;2;363127400;363127400;-31
2023/10/23 07:13:27;;;;;;;15.00;6.30;;;;;;;-128.00;-1.00;-1.00;4;7505506;579195438;-30
2023/10/23 07:22:39;;;;;;;15.00;6.30;;;;;;;-128.00;-1.00;-1.00;2;543183276;543183276;-31
2023/10/23 07:32:35;;;;;;;15.00;6.30;;;;;;;-128.00;-1.00;-1.00;2;588196257;588196257;-30
2023/10/23 07:40:08;;;;;;;15.00;6.30;;;;;;;-128.00;-1.00;-1.00;2;444153591;444153591;-30
2023/10/23 07:46:18;;;;;;;15.00;6.30;;;;;;;-128.00;-1.00;-1.00;2;363124988;363124988;-34
2023/10/23 07:57:37;;;;;;;15.00;6.30;;;;;;;-128.00;-1.00;-1.00;4;7505369;579201946;-33
2023/10/23 08:06:48;;;;;;;15.00;6.30;;;;;;;-128.00;-1.00;-1.00;2;543184918;543184918;-33
2023/10/23 08:16:44;;;;;;;15.00;6.30;;;;;;;-128.00;-1.00;-1.00;2;588195311;588195311;-30
2023/10/23 08:24:16;;;;;;;15.00;6.30;;;;;;;-128.00;-1.00;-1.00;2;444152265;444152265;-33
2023/10/23 08:30:27;;;;;;;15.00;6.30;;;;;;;-128.00;-1.00;-1.00;2;363121295;363121295;-31
2023/10/23 08:41:45;;;;;;;15.00;6.30;;;;;;;-128.00;-1.00;-1.00;4;7504064;579200729;-32
2023/10/23 08:50:57;;;;;;;15.00;6.30;;;;;;;-128.00;-1.00;-1.00;2;543179823;543179823;-30
2023/10/23 09:00:53;;;;;;;15.00;6.30;;;;;;;-128.00;-1.00;-1.00;2;588201994;588201994;-33
2023/10/23 09:08:30;;;;;;;15.00;6.30;;;;;;;-128.00;-1.00;-1.00;2;444151002;444151002;-30
2023/10/23 09:14:42;;;;;;;15.00;6.30;;;;;;;-128.00;-1.00;-1.00;2;363127053;363127053;-32
2023/10/23 09:26:01;;;;;;;15.00;6.30;;;;;;;-128.00;-1.00;-1.00;4;7504784;579196194;-31
2023/10/23 09:35:12;;;;;;;15.00;6.30;;;;;;;-128.00;-1.00;-1.00;2;543190764;543190764;-33
2023/10/23 09:45:08;;;;;;;15.00;6.30;;;;;;;-128.00;-1.00;-1.00;2;588197331;588197331;-33
2023/10/23 09:52:40;;;;;;;15.00;6.30;;;;;;;-128.00;-1.00;-1.00;2;444154431;444154431;-33
2023/10/23 09:58:57;;;;;;;15.00;6.30;;;;;;;-128.00;-1.00;-1.00;2;363119104;363119104;-30
2023/10/23 10:10:16;;;;;;;15.00;6.30;;;;;;;-128.00;-1.00;-1.00;4;7505115;579197697;-35
2023/10/23 10:19:27;;;;;;;15.00;6.30;;;;;;;-128.00;-1.00;-1.00;2;543185471;543185471;-34
2023/10/23 10:29:25;;;;;;;15.00;6.30;;;;;;;-128.00;-1.00;-1.00;2;588202294;588202294;-33
2023/10/23 10:36:57;;;;;;;15.00;6.30;;;;;;;-128.00;-1.00;-1.00;2;444156399;444156399;-33
2023/10/23 10:43:08;;;;;;;15.00;6.30;;;;;;;-128.00;-1.00;-1.00;2;363122887;363122887;-33
2023/10/23 10:54:28;;;;;;;15.00;6.30;;;;;;;-128.00;-1.00;-1.00;4;7504587;579200321;-33
2023/10/23 11:03:41;;;;;;;15.00;6.30;;;;;;;-128.00;-1.00;-1.00;2;543189546;543189546;-32
2023/10/23 11:13:37;;;;;;;15.00;6.30;;;;;;;-128.00;-1.00;-1.00;2;588197059;588197059;-32
2023/10/23 11:21:10;;;;;;;15.00;6.30;;;;;;;-128.00;-1.00;-1.00;2;444149720;444149720;-32
2023/10/23 11:27:20;;;;;;;15.00;6.30;;;;;;;-128.00;-1.00;-1.00;2;363121341;363121341;-30
2023/10/23 11:38:39;;;;;;;15.00;6.30;;;;;;;-128.00;-1.00;-1.00;4;7505194;579204891;-30
2023/10/23 11:47:51;;;;;;;15.00;6.30;;;;;;;-128.00;-1.00;-1.00;2;543183756;543183756;-31
2023/10/23 11:57:50;;;;;;;15.00;6.30;;;;;;;-128.00;-1.00;-1.00;2;588200867;588200867;-30
2023/10/23 12:05:22;;;;;;;15.00;6.30;;;;;;;-128.00;-1.00;-1.00;2;444149213;444149213;-30
2023/10/23 12:11:34;;;;;;;15.00;6.30;;;;;;;-128.00;-1.00;-1.00;2;363125962;363125962;-30
2023/10/23 12:22:53;;;;;;;15.00;6.30;;;;;;;-128.00;-1.00;-1.00;4;7505005;579198370;-30
2023/10/23 12:32:04;;;;;;;15.00;6.30;;;;;;;-128.00;-1.00;-1.00;2;543183660;543183660;-30
2023/10/23 12:42:00;;;;;;;15.00;6.30;;;;;;;-128.00;-1.00;-1.00;2;588200943;588200943;-30
2023/10/23 12:49:32;;;;;;;15.00;6.30;;;;;;;-128.00;-1.00;-1.00;2;444152180;444152180;-32
2023/10/23 12:55:45;;;;;;;15.00;6.30;;;;;;;-128.00;-1.00;-1.00;2;363128492;363128492;-32
2023/10/23 13:07:04;;;;;;;15.00;6.30;;;;;;;-128.00;-1.00;-1.00;4;7504388;579200095;-32
2023/10/23 13:16:15;;;;;;;15.00;6.30;;;;;;;-128.00;-1.00;-1.00;2;543185470;543185470;-30
2023/10/23 13:26:11;;;;;;;15.00;6.30;;;;;;;-128.00;-1.00;-1.00;2;588204653;588204653;-32
2023/10/23 13:33:43;;;;;;;15.00;6.30;;;;;;;-128.00;-1.00;-1.00;2;444150533;444150533;-30
2023/10/23 13:39:54;;;;;;;15.00;6.30;;;;;;;-128.00;-1.00;-1.00;2;363121154;363121154;-29
2023/10/23 14:32:41;;;;;;;6.80;1.70;;;;;;;-42.41;59.77;79460.31;102949;1281;1002273;-30
2023/10/23 14:35:07;;;;;;;9.00;1.70;;;;;;;-128.00;-1.00;-1.00;100937;1280;1006181;-28
2023/10/23 14:37:33;;;;;;;6.50;1.90;;;;;;;-128.00;-1.00;-1.00;101137;1283;1002650;-31
2023/10/23 14:39:58;;;;;;;4.80;1.90;;;;;;;-128.00;-1.00;-1.00;100994;1281;1002821;-28
2023/10/23 14:42:24;;;;;;;6.30;1.70;;;;;;;-128.00;-1.00;-1.00;101074;1283;1002983;-28
2023/10/23 14:44:49;;;;;;;3.30;2.10;;;;;;;-128.00;-1.00;-1.00;101007;1286;1002817;-28
2023/10/23 14:47:14;;;;;;;7.30;2.60;;;;;;;-128.00;-1.00;-1.00;101229;1283;1003217;-31
2023/10/23 14:49:40;;;;;;;6.20;2.60;;;;;;;-128.00;-1.00;-1.00;101025;1286;1002678;-31
2023/10/23 14:52:05;;;;;;;10.80;2.80;;;;;;;-128.00;-1.00;-1.00;101209;1283;1003699;-32
2023/10/23 14:54:31;;;;;;;7.70;3.30;;;;;;;-128.00;-1.00;-1.00;101080;1285;1002945;-32
2023/10/23 14:56:56;;;;;;;6.50;3.10;;;;;;;-128.00;-1.00;-1.00;101072;1283;1002850;-33
2023/10/23 14:59:22;;;;;;;8.40;3.20;;;;;;;-128.00;-1.00;-1.00;101115;1285;1002667;-28
2023/10/23 15:01:48;;;;;;;9.30;4.00;;;;;;;-128.00;-1.00;-1.00;101159;1283;1002661;-32
2023/10/23 15:04:13;;;;;;;7.20;3.90;;;;;;;-128.00;-1.00;-1.00;101140;1281;1004098;-30
2023/10/23 15:06:39;;;;;;;11.30;3.90;;;;;;;-128.00;-1.00;-1.00;101392;1283;1004622;-29
2023/10/23 15:09:05;;;;;;;5.80;2.80;;;;;;;-128.00;-1.00;-1.00;101128;1283;1003418;-29
2023/10/23 15:11:31;;;;;;;9.50;4.50;;;;;;;-128.00;-1.00;-1.00;101154;1283;1004452;-32
2023/10/23 15:13:56;;;;;;;;;;;;;;;-128.00;-1.00;-1.00;101215;1285;1002989;-29
2023/10/23 15:16:21;;;;;;;13.70;4.90;;;;;;;-128.00;-1.00;-1.00;101175;1285;1002692;-29
2023/10/23 15:18:47;;;;;;;10.90;4.90;;;;;;;-128.00;-1.00;-1.00;101123;1285;1005175;-29
2023/10/23 15:21:14;;;;;;;20.80;5.80;;;;;;;-128.00;-1.00;-1.00;101108;1285;1004452;-29
2023/10/23 15:23:40;;;;;;;14.00;6.60;;;;;;;-128.00;-1.00;-1.00;101136;1285;1003521;-31
2023/10/23 15:26:05;;;;;;;20.10;10.00;;;;;;;-128.00;-1.00;-1.00;101125;1283;1002628;-31
2023/10/23 15:35:18;;;;;;;20.10;10.00;;;;;;;-128.00;-1.00;-1.00;731;1304;540183516;-31
2023/10/23 15:45:14;;;;;;;20.10;10.00;;;;;;;-128.00;-1.00;-1.00;2;588195663;588195663;-31
2023/10/23 15:52:46;;;;;;;20.10;10.00;;;;;;;-128.00;-1.00;-1.00;2;444149773;444149773;-30
2023/10/23 15:58:57;;;;;;;20.10;10.00;;;;;;;-128.00;-1.00;-1.00;2;363125908;363125908;-31
2023/10/23 16:10:16;;;;;;;20.10;10.00;;;;;;;-128.00;-1.00;-1.00;4;7504458;579193268;-30
2023/10/23 16:19:27;;;;;;;20.10;10.00;;;;;;;-128.00;-1.00;-1.00;2;543180281;543180281;-31
2023/10/23 16:29:23;;;;;;;20.10;10.00;;;;;;;-128.00;-1.00;-1.00;2;588193471;588193471;-33
2023/10/23 16:36:55;;;;;;;20.10;10.00;;;;;;;-128.00;-1.00;-1.00;2;444148382;444148382;-31
2023/10/23 16:43:06;;;;;;;20.10;10.00;;;;;;;-128.00;-1.00;-1.00;2;363126278;363126278;-31
2023/10/23 16:54:24;;;;;;;20.10;10.00;;;;;;;-128.00;-1.00;-1.00;4;7505140;579192235;-31
2023/10/23 17:03:39;;;;;;;20.10;10.00;;;;;;;-128.00;-1.00;-1.00;2;543182172;543182172;-30
2023/10/23 17:13:36;;;;;;;20.10;10.00;;;;;;;-128.00;-1.00;-1.00;2;588199961;588199961;-31
2023/10/23 17:21:08;;;;;;;20.10;10.00;;;;;;;-128.00;-1.00;-1.00;2;444150860;444150860;-31
2023/10/23 17:27:19;;;;;;;20.10;10.00;;;;;;;-128.00;-1.00;-1.00;2;363122289;363122289;-31
2023/10/23 17:38:38;;;;;;;20.10;10.00;;;;;;;-128.00;-1.00;-1.00;4;7505164;579196311;-31
2023/10/23 17:47:50;;;;;;;20.10;10.00;;;;;;;-128.00;-1.00;-1.00;2;543181601;543181601;-31
2023/10/23 17:57:46;;;;;;;20.10;10.00;;;;;;;-128.00;-1.00;-1.00;2;588196715;588196715;-30
2023/10/23 18:05:18;;;;;;;20.10;10.00;;;;;;;-128.00;-1.00;-1.00;2;444150556;444150556;-31
2023/10/23 18:11:29;;;;;;;20.10;10.00;;;;;;;-128.00;-1.00;-1.00;2;363124963;363124963;-33
2023/10/23 18:22:47;;;;;;;20.10;10.00;;;;;;;-128.00;-1.00;-1.00;4;7504438;579191918;-31
2023/10/23 18:31:58;;;;;;;20.10;10.00;;;;;;;-128.00;-1.00;-1.00;2;543187165;543187165;-33
2023/10/23 18:41:54;;;;;;;20.10;10.00;;;;;;;-128.00;-1.00;-1.00;2;588193539;588193539;-32
2023/10/23 18:49:26;;;;;;;20.10;10.00;;;;;;;-128.00;-1.00;-1.00;2;444152181;444152181;-33
2023/10/23 19:48:26;;;;;;;80.50;40.00;;;;;;;-82.86;32.67;33090.97;2;584483253;584483253;-28
2023/10/23 19:57:37;;;;;;;80.50;40.00;;;;;;;-128.00;-1.00;-1.00;2;543185553;543185553;-30
2023/10/23 20:07:24;;;;;;;80.50;40.00;;;;;;;-128.00;-1.00;-1.00;2;579193327;579193327;-32
2023/10/23 20:14:56;;;;;;;80.50;40.00;;;;;;;-128.00;-1.00;-1.00;2;444147301;444147301;-31
2023/10/23 20:21:07;;;;;;;80.50;40.00;;;;;;;-128.00;-1.00;-1.00;2;363118134;363118134;-33
2023/10/23 20:32:26;;;;;;;80.50;40.00;;;;;;;-128.00;-1.00;-1.00;4;7507693;579206256;-31
2023/10/23 20:41:37;;;;;;;80.50;40.00;;;;;;;-128.00;-1.00;-1.00;2;543182007;543182007;-32
2023/10/23 20:51:24;;;;;;;80.50;40.00;;;;;;;-128.00;-1.00;-1.00;2;579193016;579193016;-29
2023/10/23 20:58:56;;;;;;;80.50;40.00;;;;;;;-128.00;-1.00;-1.00;2;444153157;444153157;-31
2023/10/23 21:05:07;;;;;;;80.50;40.00;;;;;;;-128.00;-1.00;-1.00;2;363125674;363125674;-33
2023/10/23 21:16:26;;;;;;;80.50;40.00;;;;;;;-128.00;-1.00;-1.00;4;7505623;579198170;-31
2023/10/23 21:25:37;;;;;;;80.50;40.00;;;;;;;-128.00;-1.00;-1.00;2;543179468;543179468;-31
2023/10/23 21:35:33;;;;;;;80.50;40.00;;;;;;;-128.00;-1.00;-1.00;2;588196634;588196634;-33
2023/10/23 21:43:05;;;;;;;80.50;40.00;;;;;;;-128.00;-1.00;-1.00;2;444147749;444147749;-33
2023/10/23 21:49:16;;;;;;;80.50;40.00;;;;;;;-128.00;-1.00;-1.00;2;363122362;363122362;-30
2023/10/23 22:00:34;;;;;;;80.50;40.00;;;;;;;-128.00;-1.00;-1.00;4;7505172;579198403;-33
2023/10/23 22:09:46;;;;;;;80.50;40.00;;;;;;;-128.00;-1.00;-1.00;2;543188064;543188064;-29
2023/10/23 22:19:42;;;;;;;80.50;40.00;;;;;;;-128.00;-1.00;-1.00;2;588197645;588197645;-28
2023/10/23 22:27:13;;;;;;;80.50;40.00;;;;;;;-128.00;-1.00;-1.00;2;444152897;444152897;-31
2023/10/23 22:33:25;;;;;;;80.50;40.00;;;;;;;-128.00;-1.00;-1.00;2;363121065;363121065;-29
2023/10/23 22:44:44;;;;;;;80.50;40.00;;;;;;;-128.00;-1.00;-1.00;4;7504533;579198433;-29
2023/10/23 22:53:55;;;;;;;80.50;40.00;;;;;;;-128.00;-1.00;-1.00;2;543184390;543184390;-28
2023/10/23 23:03:51;;;;;;;80.50;40.00;;;;;;;-128.00;-1.00;-1.00;2;588193678;588193678;-31
2023/10/23 23:11:23;;;;;;;80.50;40.00;;;;;;;-128.00;-1.00;-1.00;2;444149681;444149681;-33
2023/10/23 23:17:37;;;;;;;80.50;40.00;;;;;;;-128.00;-1.00;-1.00;2;363123571;363123571;-31
2023/10/23 23:28:55;;;;;;;80.50;40.00;;;;;;;-128.00;-1.00;-1.00;4;7504493;579199081;-29
2023/10/23 23:38:06;;;;;;;80.50;40.00;;;;;;;-128.00;-1.00;-1.00;2;543183084;543183084;-31
2023/10/23 23:48:02;;;;;;;80.50;40.00;;;;;;;-128.00;-1.00;-1.00;2;588201431;588201431;-30
2023/10/23 23:55:34;;;;;;;80.50;40.00;;;;;;;-128.00;-1.00;-1.00;2;444147834;444147834;-31
